Time;durP1;ratioP1;P1;durP2;ratioP2;P2;SDS_P1;SDS_P2;PMS_P1;PMS_P2;Temp;Humidity;BMP_temperature;BMP_pressure;BME280_temperature;BME280_humidity;BME280_pressure;Samples;Min_cycle;Max_cycle;Signal;HPM_P1;HPM_P2
2023/10/03 00:00:49;;;;;;;25.95;15.07;;;;;;;;;;5021024;28;20473;-58
2023/10/03 00:03:15;;;;;;;26.43;14.77;;;;;;;;;;5027125;28;20412;-58
2023/10/03 00:05:42;;;;;;;28.63;15.23;;;;;;;;;;5024352;28;20398;-58
2023/10/03 00:08:08;;;;;;;28.38;16.10;;;;;;;;;;5019604;28;20563;-59
2023/10/03 00:10:35;;;;;;;27.10;15.77;;;;;;;;;;5026908;28;20413;-58
2023/10/03 00:13:00;;;;;;;28.65;15.05;;;;;;;;;;5025171;28;20403;-59
2023/10/03 00:15:27;;;;;;;26.77;15.60;;;;;;;;;;5018008;28;20471;-58
2023/10/03 00:17:52;;;;;;;27.83;15.88;;;;;;;;;;5018755;28;20425;-58
2023/10/03 00:20:18;;;;;;;28.20;15.53;;;;;;;;;;5024978;28;20493;-58
2023/10/03 00:22:44;;;;;;;24.43;14.27;;;;;;;;;;5015320;28;20405;-58
2023/10/03 00:25:16;;;;;;;28.02;16.05;;;;;;;;;;5019264;28;21010;-58
2023/10/03 00:27:41;;;;;;;26.30;14.15;;;;;;;;;;5016904;28;20801;-58
2023/10/03 00:30:10;;;;;;;26.37;14.70;;;;;;;;;;5030997;28;20396;-58
2023/10/03 00:32:35;;;;;;;26.33;15.10;;;;;;;;;;5022474;28;20461;-58
2023/10/03 00:35:01;;;;;;;28.67;15.52;;;;;;;;;;5021803;28;20825;-59
2023/10/03 00:37:28;;;;;;;26.73;14.73;;;;;;;;;;5016195;28;20404;-58
2023/10/03 00:39:54;;;;;;;28.42;15.07;;;;;;;;;;5023874;28;20736;-58
2023/10/03 00:42:20;;;;;;;28.27;14.83;;;;;;;;;;5019613;28;20504;-58
2023/10/03 00:44:45;;;;;;;28.55;15.15;;;;;;;;;;5024054;28;20537;-58
2023/10/03 00:47:11;;;;;;;25.03;13.97;;;;;;;;;;5024687;28;20415;-58
2023/10/03 00:49:36;;;;;;;25.20;13.83;;;;;;;;;;5020706;28;20400;-58
2023/10/03 00:52:05;;;;;;;26.17;13.23;;;;;;;;;;5022739;28;21284;-59
2023/10/03 00:54:30;;;;;;;25.52;13.60;;;;;;;;;;5024543;28;20432;-58
2023/10/03 00:56:56;;;;;;;26.00;14.57;;;;;;;;;;5015773;28;20408;-58
2023/10/03 00:59:22;;;;;;;28.23;14.33;;;;;;;;;;5017823;28;20398;-58
2023/10/03 01:01:49;;;;;;;26.75;14.30;;;;;;;;;;5024579;28;20419;-58
2023/10/03 01:04:20;;;;;;;28.50;14.75;;;;;;;;;;5023525;28;20759;-58
2023/10/03 01:06:47;;;;;;;25.20;13.40;;;;;;;;;;5019066;28;20423;-58
2023/10/03 01:09:20;;;;;;;25.85;13.52;;;;;;;;;;5016411;28;20438;-58
2023/10/03 01:11:48;;;;;;;25.23;13.50;;;;;;;;;;5023377;28;20409;-58
2023/10/03 01:14:15;;;;;;;26.80;14.30;;;;;;;;;;5022782;28;20498;-58
2023/10/03 01:16:41;;;;;;;27.30;15.03;;;;;;;;;;5020242;28;20508;-58
2023/10/03 01:19:18;;;;;;;24.88;14.23;;;;;;;;;;5023124;28;20499;-58
2023/10/03 01:21:45;;;;;;;26.95;14.77;;;;;;;;;;5016015;28;20401;-58
2023/10/03 01:24:14;;;;;;;27.40;14.03;;;;;;;;;;5017254;28;20908;-58
2023/10/03 01:26:39;;;;;;;25.13;13.75;;;;;;;;;;5016328;28;20417;-58
2023/10/03 01:29:05;;;;;;;26.73;13.63;;;;;;;;;;5024108;28;20407;-59
2023/10/03 01:31:30;;;;;;;24.93;14.00;;;;;;;;;;5023109;28;20407;-58
2023/10/03 01:33:55;;;;;;;25.73;14.00;;;;;;;;;;5019337;28;20777;-58
2023/10/03 01:36:22;;;;;;;26.50;14.47;;;;;;;;;;5015526;28;20395;-58
2023/10/03 01:38:47;;;;;;;24.05;14.05;;;;;;;;;;5024297;28;20736;-58
2023/10/03 01:41:13;;;;;;;25.58;14.73;;;;;;;;;;5017202;28;20408;-58
2023/10/03 01:43:40;;;;;;;28.50;15.05;;;;;;;;;;5015983;28;20415;-58
2023/10/03 01:46:05;;;;;;;26.50;14.25;;;;;;;;;;5022693;28;20437;-59
2023/10/03 01:48:33;;;;;;;27.10;15.20;;;;;;;;;;5017514;28;20420;-58
2023/10/03 01:50:58;;;;;;;27.52;14.55;;;;;;;;;;5016653;28;21022;-58
2023/10/03 01:53:23;;;;;;;26.97;14.93;;;;;;;;;;5022625;28;21514;-58
2023/10/03 01:55:49;;;;;;;26.10;14.55;;;;;;;;;;5015976;28;20404;-58
2023/10/03 01:58:14;;;;;;;25.83;14.73;;;;;;;;;;5017350;28;20407;-58
2023/10/03 02:00:40;;;;;;;29.23;15.70;;;;;;;;;;5023120;28;20404;-58
2023/10/03 02:03:07;;;;;;;28.10;14.73;;;;;;;;;;5023065;28;20407;-58
2023/10/03 02:05:34;;;;;;;27.83;14.55;;;;;;;;;;5019856;28;20488;-58
2023/10/03 02:08:04;;;;;;;28.02;14.73;;;;;;;;;;5020932;28;20411;-58
2023/10/03 02:10:29;;;;;;;29.02;15.05;;;;;;;;;;5014992;28;20470;-58
2023/10/03 02:12:55;;;;;;;26.08;14.07;;;;;;;;;;5022176;28;20411;-58
2023/10/03 02:15:21;;;;;;;29.50;15.52;;;;;;;;;;5018129;28;20480;-58
2023/10/03 02:17:49;;;;;;;27.20;14.60;;;;;;;;;;5015071;28;21428;-58
2023/10/03 02:20:20;;;;;;;27.30;15.37;;;;;;;;;;5023018;28;20812;-58
2023/10/03 02:22:46;;;;;;;25.95;14.27;;;;;;;;;;5018140;28;20427;-59
2023/10/03 02:25:15;;;;;;;26.83;14.48;;;;;;;;;;5021050;28;20457;-58
2023/10/03 02:27:41;;;;;;;26.33;14.60;;;;;;;;;;5014745;28;20767;-58
2023/10/03 02:30:11;;;;;;;27.25;14.30;;;;;;;;;;5020724;28;20921;-58
2023/10/03 02:32:37;;;;;;;27.75;14.90;;;;;;;;;;5018887;28;20414;-58
2023/10/03 02:35:03;;;;;;;28.00;14.30;;;;;;;;;;5014448;28;20419;-59
2023/10/03 02:37:28;;;;;;;30.48;15.20;;;;;;;;;;5013851;28;20396;-58
2023/10/03 02:39:54;;;;;;;28.70;14.98;;;;;;;;;;5018372;28;20411;-58
2023/10/03 02:42:19;;;;;;;27.77;15.37;;;;;;;;;;5021201;28;20530;-58
2023/10/03 02:44:45;;;;;;;26.50;14.33;;;;;;;;;;5023468;28;20411;-58
2023/10/03 02:47:11;;;;;;;28.23;15.27;;;;;;;;;;5024514;28;20540;-58
2023/10/03 02:49:36;;;;;;;26.97;14.50;;;;;;;;;;5023463;28;20442;-58
2023/10/03 02:52:03;;;;;;;28.93;14.23;;;;;;;;;;5018183;28;20758;-59
2023/10/03 02:54:29;;;;;;;27.38;15.05;;;;;;;;;;5019031;28;20401;-58
2023/10/03 02:56:54;;;;;;;28.20;15.17;;;;;;;;;;5020189;28;20418;-58
2023/10/03 02:59:20;;;;;;;28.20;14.63;;;;;;;;;;5026399;28;20490;-58
2023/10/03 03:01:52;;;;;;;26.85;14.10;;;;;;;;;;5019065;28;20490;-58
2023/10/03 03:04:17;;;;;;;24.95;13.40;;;;;;;;;;5019282;28;20401;-59
2023/10/03 03:06:46;;;;;;;24.97;13.90;;;;;;;;;;5019914;28;20402;-58
2023/10/03 03:09:17;;;;;;;25.70;13.43;;;;;;;;;;5026105;28;20406;-59
2023/10/03 03:11:48;;;;;;;25.05;14.02;;;;;;;;;;5025626;28;20403;-58
2023/10/03 03:14:14;;;;;;;26.38;13.00;;;;;;;;;;5021205;28;20413;-58
2023/10/03 03:16:40;;;;;;;26.60;14.02;;;;;;;;;;5026780;28;20445;-58
2023/10/03 03:19:05;;;;;;;26.50;13.35;;;;;;;;;;5017000;28;20404;-59
2023/10/03 03:21:33;;;;;;;28.30;14.33;;;;;;;;;;5023266;28;20780;-58
2023/10/03 03:24:00;;;;;;;26.38;13.55;;;;;;;;;;5023979;28;20429;-58
2023/10/03 03:26:36;;;;;;;29.83;13.82;;;;;;;;;;5024850;28;27229;-58
2023/10/03 03:29:15;;;;;;;28.23;13.93;;;;;;;;;;5020154;28;20737;-59
2023/10/03 03:31:42;;;;;;;24.50;12.82;;;;;;;;;;5021451;28;20408;-58
2023/10/03 03:34:08;;;;;;;26.55;13.07;;;;;;;;;;5024747;28;20443;-58
2023/10/03 03:36:34;;;;;;;25.60;13.55;;;;;;;;;;5018665;28;20932;-58
2023/10/03 03:39:03;;;;;;;25.80;13.30;;;;;;;;;;5018564;28;20507;-58
2023/10/03 03:41:28;;;;;;;26.83;13.10;;;;;;;;;;5019961;28;20410;-58
2023/10/03 03:43:54;;;;;;;24.02;12.30;;;;;;;;;;5025005;28;21096;-58
2023/10/03 03:46:19;;;;;;;27.58;13.07;;;;;;;;;;5025095;28;20408;-59
2023/10/03 03:48:46;;;;;;;27.40;13.47;;;;;;;;;;5021248;28;20525;-59
2023/10/03 03:51:12;;;;;;;25.80;12.70;;;;;;;;;;5017336;28;20880;-59
2023/10/03 03:53:38;;;;;;;25.80;13.10;;;;;;;;;;5025339;28;20424;-58
2023/10/03 03:56:07;;;;;;;24.55;12.65;;;;;;;;;;5011278;28;20448;-59
2023/10/03 03:58:33;;;;;;;23.23;12.75;;;;;;;;;;5011086;28;20418;-58
2023/10/03 04:01:00;;;;;;;24.45;13.07;;;;;;;;;;5006070;28;20423;-59
2023/10/03 04:03:28;;;;;;;25.42;13.18;;;;;;;;;;5007675;28;20420;-59
2023/10/03 04:05:57;;;;;;;24.17;12.70;;;;;;;;;;5023322;28;20403;-59
2023/10/03 04:08:23;;;;;;;23.75;12.73;;;;;;;;;;5010378;28;20426;-59
2023/10/03 04:10:49;;;;;;;24.33;12.23;;;;;;;;;;5000341;28;20998;-59
2023/10/03 04:13:17;;;;;;;24.45;12.07;;;;;;;;;;4998615;28;20566;-59
2023/10/03 04:15:45;;;;;;;23.77;12.55;;;;;;;;;;4999665;28;20444;-59
2023/10/03 04:18:11;;;;;;;21.27;11.85;;;;;;;;;;5003749;28;20409;-59
2023/10/03 04:20:39;;;;;;;22.83;11.70;;;;;;;;;;5006189;28;20392;-58
2023/10/03 04:23:06;;;;;;;23.37;11.57;;;;;;;;;;5007049;28;21160;-59
2023/10/03 04:25:33;;;;;;;23.13;11.07;;;;;;;;;;5006634;28;20403;-59
2023/10/03 04:27:58;;;;;;;21.40;10.95;;;;;;;;;;5005289;28;20406;-58
2023/10/03 04:30:26;;;;;;;21.10;10.17;;;;;;;;;;5006043;28;20876;-59
2023/10/03 04:32:52;;;;;;;20.98;9.73;;;;;;;;;;5006687;28;20435;-58
2023/10/03 04:35:18;;;;;;;20.60;9.93;;;;;;;;;;4997960;28;20419;-59
2023/10/03 04:37:45;;;;;;;19.17;10.00;;;;;;;;;;4998860;28;20648;-59
2023/10/03 04:40:13;;;;;;;21.00;10.27;;;;;;;;;;5003531;28;20421;-59
2023/10/03 04:42:40;;;;;;;21.45;9.63;;;;;;;;;;5012645;28;20419;-58
2023/10/03 04:45:07;;;;;;;20.67;10.52;;;;;;;;;;5005460;28;20945;-59
2023/10/03 04:47:33;;;;;;;21.47;9.73;;;;;;;;;;5007151;28;20408;-59
2023/10/03 04:50:00;;;;;;;18.25;9.30;;;;;;;;;;5005642;28;20421;-59
2023/10/03 04:52:25;;;;;;;20.48;9.48;;;;;;;;;;5005213;28;21424;-59
2023/10/03 04:54:50;;;;;;;20.92;8.68;;;;;;;;;;5003905;28;20479;-58
2023/10/03 04:57:15;;;;;;;19.08;8.60;;;;;;;;;;4999039;28;20616;-58
2023/10/03 04:59:41;;;;;;;18.07;8.57;;;;;;;;;;4998132;28;20422;-59
2023/10/03 05:02:06;;;;;;;26.07;7.97;;;;;;;;;;4998156;28;20458;-58
2023/10/03 05:04:31;;;;;;;17.17;6.10;;;;;;;;;;5005783;28;20404;-58
2023/10/03 05:06:57;;;;;;;16.57;5.43;;;;;;;;;;5005462;28;20443;-58
2023/10/03 05:09:28;;;;;;;17.77;5.50;;;;;;;;;;5004900;28;20759;-59
2023/10/03 05:11:53;;;;;;;16.33;5.20;;;;;;;;;;5006257;28;20490;-59
2023/10/03 05:14:18;;;;;;;12.63;4.70;;;;;;;;;;5005269;28;20518;-59
2023/10/03 05:16:44;;;;;;;11.90;4.30;;;;;;;;;;5005840;28;20560;-58
2023/10/03 05:19:10;;;;;;;15.02;4.30;;;;;;;;;;4997706;28;20405;-59
2023/10/03 05:21:37;;;;;;;12.67;4.70;;;;;;;;;;4998657;28;20416;-58
2023/10/03 05:24:03;;;;;;;15.70;4.90;;;;;;;;;;5003167;28;20409;-59
2023/10/03 05:26:29;;;;;;;13.65;4.53;;;;;;;;;;5004196;28;20431;-58
2023/10/03 05:28:55;;;;;;;13.07;4.40;;;;;;;;;;5010555;28;20771;-58
2023/10/03 05:31:21;;;;;;;14.37;4.50;;;;;;;;;;5022222;28;20409;-58
2023/10/03 05:33:46;;;;;;;14.10;4.13;;;;;;;;;;5024369;28;20419;-58
2023/10/03 05:36:13;;;;;;;11.82;4.10;;;;;;;;;;5022706;28;20418;-58
2023/10/03 05:38:40;;;;;;;9.18;3.35;;;;;;;;;;5018063;28;20405;-58
2023/10/03 05:41:06;;;;;;;12.43;4.10;;;;;;;;;;5023662;28;20418;-58
2023/10/03 05:43:33;;;;;;;11.20;3.80;;;;;;;;;;5023422;28;20889;-58
2023/10/03 05:45:58;;;;;;;10.50;3.53;;;;;;;;;;5020264;28;20403;-58
2023/10/03 05:48:25;;;;;;;10.90;4.00;;;;;;;;;;5020272;28;20394;-58
2023/10/03 05:50:50;;;;;;;12.52;3.92;;;;;;;;;;5021949;28;20514;-58
2023/10/03 05:53:15;;;;;;;9.00;3.83;;;;;;;;;;5021163;28;20962;-58
2023/10/03 05:55:41;;;;;;;10.87;3.50;;;;;;;;;;5020462;28;20419;-58
2023/10/03 05:58:07;;;;;;;11.47;3.90;;;;;;;;;;5023217;28;20407;-58
2023/10/03 06:00:32;;;;;;;10.10;3.50;;;;;;;;;;5021349;28;20401;-58
2023/10/03 06:02:58;;;;;;;12.23;3.57;;;;;;;;;;5019154;28;20411;-58
2023/10/03 06:05:24;;;;;;;9.18;3.53;;;;;;;;;;5022874;28;20421;-58
2023/10/03 06:07:49;;;;;;;8.63;3.70;;;;;;;;;;5023043;28;20891;-58
2023/10/03 06:10:16;;;;;;;10.10;3.50;;;;;;;;;;5021482;28;20435;-58
2023/10/03 06:12:41;;;;;;;10.50;3.60;;;;;;;;;;5017664;28;20876;-58
2023/10/03 06:15:07;;;;;;;8.85;3.40;;;;;;;;;;5023514;28;20407;-58
2023/10/03 06:17:32;;;;;;;9.68;3.50;;;;;;;;;;5023002;28;20395;-58
2023/10/03 06:19:57;;;;;;;9.13;3.50;;;;;;;;;;5017592;28;20957;-59
2023/10/03 06:22:23;;;;;;;9.57;3.90;;;;;;;;;;5013916;28;20411;-58
2023/10/03 06:24:49;;;;;;;9.97;3.60;;;;;;;;;;5023299;28;20457;-58
2023/10/03 06:27:14;;;;;;;7.80;3.63;;;;;;;;;;5016596;28;20417;-58
2023/10/03 06:29:40;;;;;;;9.33;3.53;;;;;;;;;;5015736;28;20406;-57
2023/10/03 06:32:06;;;;;;;10.18;3.80;;;;;;;;;;5010996;28;20935;-58
2023/10/03 06:34:31;;;;;;;10.50;3.63;;;;;;;;;;5014924;28;20939;-57
2023/10/03 06:36:56;;;;;;;9.47;3.77;;;;;;;;;;5017092;28;20488;-58
2023/10/03 06:39:21;;;;;;;9.57;3.73;;;;;;;;;;5021241;28;20482;-57
2023/10/03 06:41:47;;;;;;;10.03;3.70;;;;;;;;;;5015118;28;21201;-57
2023/10/03 06:44:12;;;;;;;9.83;3.60;;;;;;;;;;5017145;28;20514;-58
2023/10/03 06:46:38;;;;;;;12.67;3.90;;;;;;;;;;5022540;28;20409;-58
2023/10/03 06:49:03;;;;;;;10.55;3.90;;;;;;;;;;5021714;28;20424;-57
2023/10/03 06:51:29;;;;;;;9.27;3.60;;;;;;;;;;5016836;28;20413;-58
2023/10/03 06:53:54;;;;;;;10.77;4.07;;;;;;;;;;5015632;28;20419;-57
2023/10/03 06:56:20;;;;;;;10.70;3.70;;;;;;;;;;5021807;28;20782;-57
2023/10/03 06:58:46;;;;;;;14.43;4.13;;;;;;;;;;5015231;28;20401;-57
2023/10/03 07:01:12;;;;;;;11.02;3.70;;;;;;;;;;5015590;28;20406;-58
2023/10/03 07:03:38;;;;;;;9.97;3.97;;;;;;;;;;5013624;28;20407;-58
2023/10/03 07:06:04;;;;;;;10.90;4.07;;;;;;;;;;5022299;28;20395;-57
2023/10/03 07:08:29;;;;;;;10.00;3.83;;;;;;;;;;5017373;28;20403;-57
2023/10/03 07:10:57;;;;;;;9.70;3.87;;;;;;;;;;5014525;28;20899;-58
2023/10/03 07:13:22;;;;;;;7.88;3.78;;;;;;;;;;5014036;28;20393;-57
2023/10/03 07:15:48;;;;;;;8.83;3.80;;;;;;;;;;5014779;28;20412;-58
2023/10/03 07:18:14;;;;;;;10.13;4.00;;;;;;;;;;5014807;28;20408;-58
2023/10/03 07:20:40;;;;;;;8.73;3.78;;;;;;;;;;5022924;28;20406;-58
2023/10/03 07:23:06;;;;;;;9.30;3.80;;;;;;;;;;5021248;28;20490;-58
2023/10/03 07:25:32;;;;;;;9.93;3.55;;;;;;;;;;5017001;28;20411;-57
2023/10/03 07:27:57;;;;;;;10.97;3.50;;;;;;;;;;5022782;28;20475;-57
2023/10/03 07:30:23;;;;;;;9.83;4.10;;;;;;;;;;5014540;28;20380;-58
2023/10/03 07:32:48;;;;;;;10.53;3.80;;;;;;;;;;5018764;28;20715;-57
2023/10/03 07:35:17;;;;;;;9.87;3.67;;;;;;;;;;5018043;28;20420;-57
2023/10/03 07:37:42;;;;;;;10.10;4.03;;;;;;;;;;5017683;28;21028;-57
2023/10/03 07:40:07;;;;;;;10.33;3.90;;;;;;;;;;5024655;28;20428;-58
2023/10/03 07:42:33;;;;;;;9.50;4.10;;;;;;;;;;5025399;28;21391;-58
2023/10/03 07:44:58;;;;;;;10.73;4.63;;;;;;;;;;5025584;28;20473;-59
2023/10/03 07:47:23;;;;;;;8.87;4.40;;;;;;;;;;5023134;28;20870;-58
2023/10/03 07:49:48;;;;;;;11.43;4.40;;;;;;;;;;5020636;28;20407;-58
2023/10/03 07:52:17;;;;;;;6.87;3.97;;;;;;;;;;5016726;28;20949;-58
2023/10/03 07:54:44;;;;;;;8.88;4.18;;;;;;;;;;5026231;28;20494;-59
2023/10/03 07:57:09;;;;;;;8.60;4.03;;;;;;;;;;5023008;28;20391;-58
2023/10/03 07:59:35;;;;;;;10.03;4.00;;;;;;;;;;5022288;28;20418;-57
2023/10/03 08:02:04;;;;;;;9.30;4.20;;;;;;;;;;5017577;28;20445;-58
2023/10/03 08:04:31;;;;;;;11.77;4.72;;;;;;;;;;5020639;28;20405;-59
2023/10/03 08:06:57;;;;;;;9.77;4.32;;;;;;;;;;5019768;28;20477;-58
2023/10/03 08:09:24;;;;;;;8.68;4.22;;;;;;;;;;5017064;28;20472;-58
2023/10/03 08:11:52;;;;;;;8.93;3.90;;;;;;;;;;5025574;28;20403;-58
2023/10/03 08:14:17;;;;;;;7.95;3.80;;;;;;;;;;5017942;28;20443;-58
2023/10/03 08:16:43;;;;;;;8.73;3.95;;;;;;;;;;5018049;28;20424;-58
2023/10/03 08:19:21;;;;;;;7.63;3.55;;;;;;;;;;5024823;28;20399;-58
2023/10/03 08:21:48;;;;;;;8.07;3.40;;;;;;;;;;5024790;28;20461;-58
2023/10/03 08:24:14;;;;;;;7.68;3.22;;;;;;;;;;5019491;28;20438;-58
2023/10/03 08:26:46;;;;;;;6.55;2.40;;;;;;;;;;5017324;28;20406;-58
2023/10/03 08:29:11;;;;;;;7.65;2.85;;;;;;;;;;5015958;28;20403;-58
2023/10/03 08:31:38;;;;;;;7.50;2.50;;;;;;;;;;5018437;28;20404;-58
2023/10/03 08:34:07;;;;;;;5.55;2.40;;;;;;;;;;5017009;28;20403;-58
2023/10/03 08:36:37;;;;;;;8.30;2.45;;;;;;;;;;5025380;28;20428;-58
2023/10/03 08:39:12;;;;;;;7.33;2.60;;;;;;;;;;5024932;28;20418;-58
2023/10/03 08:41:45;;;;;;;7.20;2.60;;;;;;;;;;5019410;28;20395;-57
2023/10/03 08:44:12;;;;;;;6.20;2.15;;;;;;;;;;5015057;28;20411;-58
2023/10/03 08:46:37;;;;;;;7.70;2.58;;;;;;;;;;5016720;28;20745;-58
2023/10/03 08:49:07;;;;;;;5.57;2.00;;;;;;;;;;5017095;28;20413;-58
2023/10/03 08:51:33;;;;;;;7.85;2.30;;;;;;;;;;5017386;28;20457;-58
2023/10/03 08:54:08;;;;;;;6.03;2.20;;;;;;;;;;5024542;28;20786;-58
2023/10/03 08:56:35;;;;;;;5.38;1.77;;;;;;;;;;5014165;28;20760;-57
2023/10/03 08:59:01;;;;;;;6.00;2.00;;;;;;;;;;5020319;28;20561;-58
2023/10/03 09:01:26;;;;;;;7.53;1.83;;;;;;;;;;5023254;28;20833;-57
2023/10/03 09:03:54;;;;;;;6.55;1.92;;;;;;;;;;5022848;28;20881;-58
2023/10/03 09:06:20;;;;;;;5.03;1.58;;;;;;;;;;5015727;28;20437;-59
2023/10/03 09:08:49;;;;;;;3.63;1.30;;;;;;;;;;5018329;28;20492;-59
2023/10/03 09:11:14;;;;;;;5.28;1.30;;;;;;;;;;5023100;28;20413;-58
2023/10/03 09:13:39;;;;;;;4.28;1.40;;;;;;;;;;5016369;28;20397;-58
2023/10/03 09:16:14;;;;;;;5.03;1.60;;;;;;;;;;5017153;28;20411;-58
2023/10/03 09:18:41;;;;;;;5.47;1.30;;;;;;;;;;5023404;28;20411;-58
2023/10/03 09:21:08;;;;;;;4.93;1.33;;;;;;;;;;5024519;28;20500;-58
2023/10/03 09:23:39;;;;;;;5.07;1.20;;;;;;;;;;5021780;28;20419;-58
2023/10/03 09:26:06;;;;;;;4.38;1.05;;;;;;;;;;5020628;28;20547;-58
2023/10/03 09:28:37;;;;;;;4.80;1.40;;;;;;;;;;5014640;28;20466;-58
2023/10/03 09:31:08;;;;;;;4.18;1.30;;;;;;;;;;5014803;28;20748;-58
2023/10/03 09:33:38;;;;;;;4.50;1.40;;;;;;;;;;5017823;28;20773;-58
2023/10/03 09:36:03;;;;;;;3.67;1.25;;;;;;;;;;5016413;28;20415;-58
2023/10/03 09:38:32;;;;;;;3.93;1.20;;;;;;;;;;5023418;28;20967;-58
2023/10/03 09:40:58;;;;;;;3.78;0.90;;;;;;;;;;5023623;28;20409;-58
2023/10/03 09:43:27;;;;;;;4.20;1.20;;;;;;;;;;5019982;28;21012;-57
2023/10/03 09:45:56;;;;;;;6.63;1.20;;;;;;;;;;5014714;28;20440;-58
2023/10/03 09:48:24;;;;;;;6.37;1.20;;;;;;;;;;5015251;28;20385;-57
2023/10/03 09:51:05;;;;;;;5.63;1.13;;;;;;;;;;5019799;28;20461;-58
2023/10/03 09:53:31;;;;;;;6.33;1.30;;;;;;;;;;5028715;28;20396;-57
2023/10/03 09:55:56;;;;;;;4.28;1.00;;;;;;;;;;5016215;28;20449;-57
2023/10/03 09:58:31;;;;;;;5.83;1.40;;;;;;;;;;5024322;28;20477;-58
2023/10/03 10:00:57;;;;;;;5.00;1.23;;;;;;;;;;5016493;28;20411;-58
2023/10/03 10:03:27;;;;;;;4.53;1.27;;;;;;;;;;5015400;28;20596;-58
2023/10/03 10:05:59;;;;;;;6.28;1.50;;;;;;;;;;5022595;28;20944;-57
2023/10/03 10:08:32;;;;;;;4.60;1.13;;;;;;;;;;5022195;28;20400;-58
2023/10/03 10:11:07;;;;;;;5.60;1.30;;;;;;;;;;5017313;28;20408;-58
2023/10/03 10:13:34;;;;;;;4.03;1.23;;;;;;;;;;5015443;28;20490;-58
2023/10/03 10:16:01;;;;;;;3.70;0.90;;;;;;;;;;5022137;28;20959;-57
2023/10/03 10:18:44;;;;;;;3.05;0.70;;;;;;;;;;5019012;28;20483;-57
2023/10/03 10:21:19;;;;;;;3.87;0.67;;;;;;;;;;5016802;28;20482;-58
2023/10/03 10:24:03;;;;;;;2.17;0.50;;;;;;;;;;5021763;28;20424;-58
2023/10/03 10:26:30;;;;;;;3.10;0.60;;;;;;;;;;5014707;28;20395;-57
2023/10/03 10:28:55;;;;;;;2.05;0.60;;;;;;;;;;5023075;28;20403;-58
2023/10/03 10:31:21;;;;;;;3.00;0.50;;;;;;;;;;5016172;28;20915;-58
2023/10/03 10:33:49;;;;;;;2.58;0.70;;;;;;;;;;5022285;28;20408;-58
2023/10/03 10:36:18;;;;;;;2.97;0.60;;;;;;;;;;5014372;28;20948;-58
2023/10/03 10:38:43;;;;;;;2.58;0.40;;;;;;;;;;5019900;28;20415;-57
2023/10/03 10:41:17;;;;;;;3.78;0.65;;;;;;;;;;5020366;28;20412;-57
2023/10/03 10:44:01;;;;;;;1.75;0.43;;;;;;;;;;5015363;28;20427;-58
2023/10/03 10:46:35;;;;;;;3.33;0.75;;;;;;;;;;5021647;28;20406;-57
2023/10/03 10:49:01;;;;;;;3.20;0.60;;;;;;;;;;5016073;28;20405;-57
2023/10/03 10:51:27;;;;;;;2.27;0.50;;;;;;;;;;5015238;28;20806;-57
2023/10/03 10:53:53;;;;;;;2.78;0.55;;;;;;;;;;5015065;28;20421;-57
2023/10/03 10:56:18;;;;;;;3.42;0.70;;;;;;;;;;5020826;28;20992;-58
2023/10/03 10:58:45;;;;;;;4.60;0.50;;;;;;;;;;5018996;28;20473;-57
2023/10/03 11:01:12;;;;;;;2.47;0.60;;;;;;;;;;5014063;28;20414;-57
2023/10/03 11:03:37;;;;;;;2.30;0.60;;;;;;;;;;5021926;28;20406;-58
2023/10/03 11:06:03;;;;;;;3.50;0.80;;;;;;;;;;5017884;28;20426;-58
2023/10/03 11:08:28;;;;;;;2.53;0.67;;;;;;;;;;5017965;28;20411;-57
2023/10/03 11:10:54;;;;;;;3.63;0.57;;;;;;;;;;5025817;28;20418;-58
2023/10/03 11:13:19;;;;;;;3.58;0.95;;;;;;;;;;5023780;28;20438;-58
2023/10/03 11:15:47;;;;;;;2.67;0.80;;;;;;;;;;5023394;28;20496;-58
2023/10/03 11:18:12;;;;;;;3.42;0.60;;;;;;;;;;5017854;28;20935;-58
2023/10/03 11:20:38;;;;;;;2.80;0.50;;;;;;;;;;5026250;28;20409;-58
2023/10/03 11:23:04;;;;;;;3.03;0.50;;;;;;;;;;5021048;28;20407;-58
2023/10/03 11:25:29;;;;;;;4.20;0.60;;;;;;;;;;5026041;28;20460;-57
2023/10/03 11:28:04;;;;;;;4.10;0.80;;;;;;;;;;5026537;28;20849;-57
2023/10/03 11:30:30;;;;;;;4.70;1.20;;;;;;;;;;5018880;28;20393;-57
2023/10/03 11:33:01;;;;;;;4.07;1.00;;;;;;;;;;5019461;28;20456;-58
2023/10/03 11:35:26;;;;;;;3.13;0.70;;;;;;;;;;5025909;28;20908;-57
2023/10/03 11:37:53;;;;;;;3.57;1.03;;;;;;;;;;5017818;28;20412;-58
2023/10/03 11:40:20;;;;;;;4.68;0.90;;;;;;;;;;5020446;28;20502;-57
2023/10/03 11:42:50;;;;;;;5.30;0.98;;;;;;;;;;5033501;28;20782;-57
2023/10/03 11:45:19;;;;;;;6.60;1.48;;;;;;;;;;5024650;28;20414;-57
2023/10/03 11:47:56;;;;;;;3.78;0.85;;;;;;;;;;5019564;28;20447;-58
2023/10/03 11:50:22;;;;;;;3.17;0.90;;;;;;;;;;5019000;28;20917;-58
2023/10/03 11:52:48;;;;;;;3.73;0.90;;;;;;;;;;5017044;28;20408;-59
2023/10/03 11:55:15;;;;;;;4.97;1.03;;;;;;;;;;5017377;28;20428;-59
2023/10/03 11:57:40;;;;;;;4.28;0.90;;;;;;;;;;5020104;28;20737;-59
2023/10/03 12:00:14;;;;;;;3.60;0.90;;;;;;;;;;5024429;28;20414;-58
2023/10/03 12:02:40;;;;;;;3.20;0.88;;;;;;;;;;5025963;28;20402;-58
2023/10/03 12:05:05;;;;;;;2.05;0.80;;;;;;;;;;5022030;28;20399;-58
2023/10/03 12:07:31;;;;;;;4.07;0.90;;;;;;;;;;5023053;28;20823;-58
2023/10/03 12:09:59;;;;;;;4.30;1.10;;;;;;;;;;5025551;28;20401;-58
2023/10/03 12:12:26;;;;;;;3.43;1.00;;;;;;;;;;5016355;28;20435;-58
2023/10/03 12:14:51;;;;;;;3.15;1.05;;;;;;;;;;5019513;28;20416;-58
2023/10/03 12:17:17;;;;;;;4.40;1.20;;;;;;;;;;5016045;28;20425;-58
2023/10/03 12:19:42;;;;;;;5.72;1.20;;;;;;;;;;5024095;28;20432;-58
2023/10/03 12:22:08;;;;;;;3.53;1.10;;;;;;;;;;5017896;28;20417;-59
2023/10/03 12:24:33;;;;;;;6.97;1.33;;;;;;;;;;5016203;28;20934;-59
2023/10/03 12:27:04;;;;;;;5.23;1.40;;;;;;;;;;5024718;28;20415;-59
2023/10/03 12:29:32;;;;;;;5.65;1.30;;;;;;;;;;5028328;28;20381;-59
2023/10/03 12:31:57;;;;;;;5.00;1.50;;;;;;;;;;5022858;28;20484;-59
2023/10/03 12:34:25;;;;;;;5.30;1.47;;;;;;;;;;5023865;28;20522;-58
2023/10/03 12:36:50;;;;;;;4.73;1.30;;;;;;;;;;5025346;28;20403;-58
2023/10/03 12:39:18;;;;;;;5.10;1.40;;;;;;;;;;5018622;28;20469;-59
2023/10/03 12:41:46;;;;;;;4.97;1.50;;;;;;;;;;5023859;28;20467;-58
2023/10/03 12:44:12;;;;;;;5.05;1.77;;;;;;;;;;5024731;28;20465;-59
2023/10/03 12:46:37;;;;;;;6.20;1.67;;;;;;;;;;5022900;28;20399;-58
2023/10/03 12:49:03;;;;;;;6.27;1.70;;;;;;;;;;5020624;28;20415;-59
2023/10/03 12:51:28;;;;;;;4.30;1.50;;;;;;;;;;5024913;28;20801;-58
2023/10/03 12:53:55;;;;;;;5.88;1.55;;;;;;;;;;5016610;28;20476;-58
2023/10/03 12:56:20;;;;;;;6.15;1.67;;;;;;;;;;5018085;28;20480;-59
2023/10/03 12:58:45;;;;;;;5.93;1.80;;;;;;;;;;5016266;28;20494;-59
2023/10/03 13:01:11;;;;;;;6.43;1.80;;;;;;;;;;5024110;28;20418;-58
2023/10/03 13:03:39;;;;;;;5.82;1.63;;;;;;;;;;5017627;28;20412;-59
2023/10/03 13:06:04;;;;;;;6.28;1.63;;;;;;;;;;5017321;28;20411;-58
2023/10/03 13:08:29;;;;;;;5.93;1.60;;;;;;;;;;5023677;28;20402;-58
2023/10/03 13:10:58;;;;;;;5.63;1.60;;;;;;;;;;5017013;28;20460;-58
2023/10/03 13:13:23;;;;;;;6.88;2.13;;;;;;;;;;5017707;28;20411;-58
2023/10/03 13:15:49;;;;;;;7.27;1.80;;;;;;;;;;5023675;28;20423;-58
2023/10/03 13:18:15;;;;;;;5.63;1.90;;;;;;;;;;5024025;28;20406;-58
2023/10/03 13:20:42;;;;;;;6.93;1.77;;;;;;;;;;5018350;28;20399;-59
2023/10/03 13:23:07;;;;;;;6.22;1.80;;;;;;;;;;5014985;28;20421;-60
2023/10/03 13:25:34;;;;;;;7.93;1.90;;;;;;;;;;5024211;28;20799;-59
2023/10/03 13:27:59;;;;;;;7.20;1.92;;;;;;;;;;5017542;28;20418;-59
2023/10/03 13:30:25;;;;;;;7.70;2.00;;;;;;;;;;5016243;28;20395;-59
2023/10/03 13:32:51;;;;;;;7.30;1.90;;;;;;;;;;5010964;28;20411;-59
2023/10/03 13:35:16;;;;;;;7.45;2.00;;;;;;;;;;5005958;28;20435;-59
2023/10/03 13:37:43;;;;;;;6.78;1.75;;;;;;;;;;5003124;28;21115;-58
2023/10/03 13:40:11;;;;;;;6.33;1.60;;;;;;;;;;5002401;28;20443;-59
2023/10/03 13:42:37;;;;;;;7.53;2.00;;;;;;;;;;5009093;28;20454;-59
2023/10/03 13:45:02;;;;;;;7.35;1.88;;;;;;;;;;5009098;28;20408;-59
2023/10/03 13:47:27;;;;;;;7.20;1.70;;;;;;;;;;5010372;28;20934;-59
2023/10/03 13:49:53;;;;;;;7.90;2.10;;;;;;;;;;5008449;28;20412;-58
2023/10/03 13:52:18;;;;;;;6.80;1.70;;;;;;;;;;5009462;28;20408;-58
2023/10/03 13:54:43;;;;;;;7.83;2.03;;;;;;;;;;5009022;28;20428;-58
2023/10/03 13:57:11;;;;;;;6.27;1.77;;;;;;;;;;5001103;28;20906;-59
2023/10/03 13:59:36;;;;;;;7.38;1.90;;;;;;;;;;5000285;28;20904;-58
2023/10/03 14:02:02;;;;;;;7.80;2.10;;;;;;;;;;5003105;28;20411;-59
2023/10/03 14:04:27;;;;;;;8.20;2.00;;;;;;;;;;5014682;28;20501;-59
2023/10/03 14:06:54;;;;;;;6.88;2.00;;;;;;;;;;5008790;28;20482;-59
2023/10/03 14:09:22;;;;;;;5.68;1.90;;;;;;;;;;5008087;28;20416;-60
2023/10/03 14:11:48;;;;;;;4.93;1.67;;;;;;;;;;5012294;28;20514;-59
2023/10/03 14:14:13;;;;;;;7.53;2.13;;;;;;;;;;5008514;28;20507;-60
2023/10/03 14:16:39;;;;;;;7.20;1.90;;;;;;;;;;5023767;28;20425;-58
2023/10/03 14:19:04;;;;;;;7.70;1.80;;;;;;;;;;5004398;28;20933;-58
2023/10/03 14:21:29;;;;;;;5.87;1.63;;;;;;;;;;5001476;28;20448;-58
2023/10/03 14:23:55;;;;;;;6.47;2.10;;;;;;;;;;5001422;28;20880;-58
2023/10/03 14:26:21;;;;;;;6.63;1.83;;;;;;;;;;5006963;28;20878;-58
2023/10/03 14:28:46;;;;;;;6.10;1.77;;;;;;;;;;5009236;28;20400;-58
2023/10/03 14:31:11;;;;;;;7.17;1.83;;;;;;;;;;5008003;28;20910;-58